sensor_id;sensor_type;location;lat;lon;timestamp;P1;durP1;ratioP1;P2;durP2;ratioP2
38859;SDS011;24609;48.316;16.174;2022-07-18T00:01:30;3.58;;;1.48;;
38859;SDS011;24609;48.316;16.174;2022-07-18T00:03:56;1.80;;;1.50;;
38859;SDS011;24609;48.316;16.174;2022-07-18T00:06:22;2.97;;;1.23;;
38859;SDS011;24609;48.316;16.174;2022-07-18T00:08:48;1.80;;;1.27;;
38859;SDS011;24609;48.316;16.174;2022-07-18T00:11:13;2.35;;;1.50;;
38859;SDS011;24609;48.316;16.174;2022-07-18T00:13:39;1.40;;;1.30;;
38859;SDS011;24609;48.316;16.174;2022-07-18T00:16:05;1.48;;;1.02;;
38859;SDS011;24609;48.316;16.174;2022-07-18T00:18:31;1.42;;;1.20;;
38859;SDS011;24609;48.316;16.174;2022-07-18T00:20:57;2.15;;;1.30;;
38859;SDS011;24609;48.316;16.174;2022-07-18T00:23:23;1.67;;;1.50;;
38859;SDS011;24609;48.316;16.174;2022-07-18T00:25:48;1.38;;;1.27;;
38859;SDS011;24609;48.316;16.174;2022-07-18T00:28:14;2.42;;;1.50;;
38859;SDS011;24609;48.316;16.174;2022-07-18T00:30:40;2.40;;;1.58;;
38859;SDS011;24609;48.316;16.174;2022-07-18T00:33:06;2.08;;;1.40;;
38859;SDS011;24609;48.316;16.174;2022-07-18T00:35:32;1.33;;;1.23;;
38859;SDS011;24609;48.316;16.174;2022-07-18T00:37:58;4.30;;;1.30;;
38859;SDS011;24609;48.316;16.174;2022-07-18T00:40:26;2.03;;;1.30;;
38859;SDS011;24609;48.316;16.174;2022-07-18T00:42:52;1.75;;;1.25;;
38859;SDS011;24609;48.316;16.174;2022-07-18T00:45:17;3.83;;;1.20;;
38859;SDS011;24609;48.316;16.174;2022-07-18T00:47:43;1.45;;;1.30;;
38859;SDS011;24609;48.316;16.174;2022-07-18T00:50:09;1.63;;;1.40;;
38859;SDS011;24609;48.316;16.174;2022-07-18T00:52:35;2.58;;;1.38;;
38859;SDS011;24609;48.316;16.174;2022-07-18T00:55:03;1.88;;;1.23;;
38859;SDS011;24609;48.316;16.174;2022-07-18T00:57:32;1.42;;;1.33;;
38859;SDS011;24609;48.316;16.174;2022-07-18T00:59:58;1.92;;;1.27;;
38859;SDS011;24609;48.316;16.174;2022-07-18T01:02:42;1.58;;;1.27;;
38859;SDS011;24609;48.316;16.174;2022-07-18T01:05:08;1.73;;;1.40;;
38859;SDS011;24609;48.316;16.174;2022-07-18T01:07:37;3.75;;;1.33;;
38859;SDS011;24609;48.316;16.174;2022-07-18T01:10:03;2.10;;;1.30;;
38859;SDS011;24609;48.316;16.174;2022-07-18T01:12:30;1.50;;;1.38;;
38859;SDS011;24609;48.316;16.174;2022-07-18T01:14:55;2.50;;;1.30;;
38859;SDS011;24609;48.316;16.174;2022-07-18T01:17:23;2.80;;;1.15;;
38859;SDS011;24609;48.316;16.174;2022-07-18T01:19:49;2.58;;;1.50;;
38859;SDS011;24609;48.316;16.174;2022-07-18T01:22:16;4.65;;;1.58;;
38859;SDS011;24609;48.316;16.174;2022-07-18T01:24:43;3.80;;;1.33;;
38859;SDS011;24609;48.316;16.174;2022-07-18T01:27:13;2.90;;;1.52;;
38859;SDS011;24609;48.316;16.174;2022-07-18T01:29:43;1.30;;;1.17;;
38859;SDS011;24609;48.316;16.174;2022-07-18T01:32:10;3.20;;;1.30;;
38859;SDS011;24609;48.316;16.174;2022-07-18T01:34:37;1.55;;;1.40;;
38859;SDS011;24609;48.316;16.174;2022-07-18T01:37:03;2.80;;;1.45;;
38859;SDS011;24609;48.316;16.174;2022-07-18T01:39:29;2.15;;;1.50;;
38859;SDS011;24609;48.316;16.174;2022-07-18T01:42:03;2.40;;;1.48;;
38859;SDS011;24609;48.316;16.174;2022-07-18T01:44:30;2.65;;;1.40;;
38859;SDS011;24609;48.316;16.174;2022-07-18T01:46:58;2.17;;;1.60;;
38859;SDS011;24609;48.316;16.174;2022-07-18T01:49:25;1.95;;;1.42;;
38859;SDS011;24609;48.316;16.174;2022-07-18T01:51:52;2.53;;;1.80;;
38859;SDS011;24609;48.316;16.174;2022-07-18T01:54:19;2.38;;;1.63;;
38859;SDS011;24609;48.316;16.174;2022-07-18T01:56:46;1.50;;;1.40;;
38859;SDS011;24609;48.316;16.174;2022-07-18T01:59:12;2.15;;;1.40;;
38859;SDS011;24609;48.316;16.174;2022-07-18T02:01:37;1.63;;;1.40;;
38859;SDS011;24609;48.316;16.174;2022-07-18T02:04:03;1.75;;;1.38;;
38859;SDS011;24609;48.316;16.174;2022-07-18T02:06:29;2.17;;;1.70;;
38859;SDS011;24609;48.316;16.174;2022-07-18T02:08:55;2.08;;;1.45;;
38859;SDS011;24609;48.316;16.174;2022-07-18T02:11:21;3.60;;;1.73;;
38859;SDS011;24609;48.316;16.174;2022-07-18T02:13:47;2.70;;;1.35;;
38859;SDS011;24609;48.316;16.174;2022-07-18T02:16:13;1.48;;;1.30;;
38859;SDS011;24609;48.316;16.174;2022-07-18T02:18:38;1.52;;;1.30;;
38859;SDS011;24609;48.316;16.174;2022-07-18T02:21:04;2.38;;;1.70;;
38859;SDS011;24609;48.316;16.174;2022-07-18T02:23:30;3.10;;;1.60;;
38859;SDS011;24609;48.316;16.174;2022-07-18T02:25:56;1.90;;;1.45;;
38859;SDS011;24609;48.316;16.174;2022-07-18T02:28:21;1.85;;;1.50;;
38859;SDS011;24609;48.316;16.174;2022-07-18T02:30:47;2.28;;;1.70;;
38859;SDS011;24609;48.316;16.174;2022-07-18T02:33:14;2.20;;;1.75;;
38859;SDS011;24609;48.316;16.174;2022-07-18T02:35:40;3.55;;;1.73;;
38859;SDS011;24609;48.316;16.174;2022-07-18T02:38:06;2.20;;;1.75;;
38859;SDS011;24609;48.316;16.174;2022-07-18T02:40:32;2.40;;;1.67;;
38859;SDS011;24609;48.316;16.174;2022-07-18T02:42:58;1.45;;;1.35;;
38859;SDS011;24609;48.316;16.174;2022-07-18T02:45:24;1.88;;;1.77;;
38859;SDS011;24609;48.316;16.174;2022-07-18T02:47:50;1.73;;;1.50;;
38859;SDS011;24609;48.316;16.174;2022-07-18T02:50:15;2.30;;;1.52;;
38859;SDS011;24609;48.316;16.174;2022-07-18T02:52:41;1.65;;;1.55;;
38859;SDS011;24609;48.316;16.174;2022-07-18T02:55:08;2.63;;;1.73;;
38859;SDS011;24609;48.316;16.174;2022-07-18T02:57:35;2.50;;;2.20;;
38859;SDS011;24609;48.316;16.174;2022-07-18T03:00:02;3.28;;;2.03;;
38859;SDS011;24609;48.316;16.174;2022-07-18T03:02:29;6.22;;;2.10;;
38859;SDS011;24609;48.316;16.174;2022-07-18T03:04:54;2.78;;;2.25;;
38859;SDS011;24609;48.316;16.174;2022-07-18T03:07:20;1.90;;;1.80;;
38859;SDS011;24609;48.316;16.174;2022-07-18T03:09:46;2.72;;;2.10;;
38859;SDS011;24609;48.316;16.174;2022-07-18T03:12:11;4.65;;;2.50;;
38859;SDS011;24609;48.316;16.174;2022-07-18T03:14:37;3.00;;;2.03;;
38859;SDS011;24609;48.316;16.174;2022-07-18T03:17:03;4.28;;;2.22;;
38859;SDS011;24609;48.316;16.174;2022-07-18T03:19:28;2.40;;;2.20;;
38859;SDS011;24609;48.316;16.174;2022-07-18T03:21:54;2.53;;;2.20;;
38859;SDS011;24609;48.316;16.174;2022-07-18T03:24:20;2.50;;;2.22;;
38859;SDS011;24609;48.316;16.174;2022-07-18T03:26:45;2.28;;;2.00;;
38859;SDS011;24609;48.316;16.174;2022-07-18T03:29:12;2.35;;;2.15;;
38859;SDS011;24609;48.316;16.174;2022-07-18T03:31:37;3.70;;;2.25;;
38859;SDS011;24609;48.316;16.174;2022-07-18T03:34:03;2.28;;;2.05;;
38859;SDS011;24609;48.316;16.174;2022-07-18T03:36:30;2.28;;;1.85;;
38859;SDS011;24609;48.316;16.174;2022-07-18T03:38:55;3.03;;;2.10;;
38859;SDS011;24609;48.316;16.174;2022-07-18T03:41:21;2.35;;;2.00;;
38859;SDS011;24609;48.316;16.174;2022-07-18T03:43:47;2.38;;;2.00;;
38859;SDS011;24609;48.316;16.174;2022-07-18T03:46:12;2.72;;;1.90;;
38859;SDS011;24609;48.316;16.174;2022-07-18T03:48:38;2.70;;;1.83;;
38859;SDS011;24609;48.316;16.174;2022-07-18T03:51:04;2.10;;;1.90;;
38859;SDS011;24609;48.316;16.174;2022-07-18T03:53:30;1.90;;;1.80;;
38859;SDS011;24609;48.316;16.174;2022-07-18T03:55:57;2.20;;;2.00;;
38859;SDS011;24609;48.316;16.174;2022-07-18T03:58:23;2.70;;;2.10;;
38859;SDS011;24609;48.316;16.174;2022-07-18T04:00:48;1.92;;;1.65;;
38859;SDS011;24609;48.316;16.174;2022-07-18T04:03:16;2.10;;;1.48;;
38859;SDS011;24609;48.316;16.174;2022-07-18T04:05:43;2.45;;;1.77;;
38859;SDS011;24609;48.316;16.174;2022-07-18T04:08:09;2.50;;;1.73;;
38859;SDS011;24609;48.316;16.174;2022-07-18T04:10:35;2.25;;;2.05;;
38859;SDS011;24609;48.316;16.174;2022-07-18T04:13:04;3.08;;;2.20;;
38859;SDS011;24609;48.316;16.174;2022-07-18T04:15:31;3.13;;;2.30;;
38859;SDS011;24609;48.316;16.174;2022-07-18T04:17:57;2.83;;;2.20;;
38859;SDS011;24609;48.316;16.174;2022-07-18T04:20:22;2.90;;;2.47;;
38859;SDS011;24609;48.316;16.174;2022-07-18T04:22:55;4.18;;;2.35;;
38859;SDS011;24609;48.316;16.174;2022-07-18T04:25:23;2.80;;;2.40;;
38859;SDS011;24609;48.316;16.174;2022-07-18T04:27:51;2.70;;;2.45;;
38859;SDS011;24609;48.316;16.174;2022-07-18T04:30:18;2.70;;;2.50;;
38859;SDS011;24609;48.316;16.174;2022-07-18T04:32:45;4.63;;;2.50;;
38859;SDS011;24609;48.316;16.174;2022-07-18T04:35:11;4.25;;;2.28;;
38859;SDS011;24609;48.316;16.174;2022-07-18T04:37:38;3.08;;;2.30;;
38859;SDS011;24609;48.316;16.174;2022-07-18T04:40:04;2.22;;;2.03;;
38859;SDS011;24609;48.316;16.174;2022-07-18T04:42:32;2.88;;;2.58;;
38859;SDS011;24609;48.316;16.174;2022-07-18T04:44:58;2.88;;;2.55;;
38859;SDS011;24609;48.316;16.174;2022-07-18T04:47:24;3.65;;;2.58;;
38859;SDS011;24609;48.316;16.174;2022-07-18T04:49:51;4.07;;;3.05;;
38859;SDS011;24609;48.316;16.174;2022-07-18T04:52:17;3.17;;;2.83;;
38859;SDS011;24609;48.316;16.174;2022-07-18T04:54:42;2.42;;;2.20;;
38859;SDS011;24609;48.316;16.174;2022-07-18T04:57:08;2.53;;;2.33;;
38859;SDS011;24609;48.316;16.174;2022-07-18T04:59:36;3.58;;;3.28;;
38859;SDS011;24609;48.316;16.174;2022-07-18T05:02:11;2.72;;;2.53;;
38859;SDS011;24609;48.316;16.174;2022-07-18T05:04:38;3.75;;;3.55;;
38859;SDS011;24609;48.316;16.174;2022-07-18T05:07:04;3.58;;;3.25;;
38859;SDS011;24609;48.316;16.174;2022-07-18T05:09:31;2.50;;;2.30;;
38859;SDS011;24609;48.316;16.174;2022-07-18T05:11:58;3.40;;;3.10;;
38859;SDS011;24609;48.316;16.174;2022-07-18T05:14:23;3.45;;;3.15;;
38859;SDS011;24609;48.316;16.174;2022-07-18T05:16:49;4.32;;;2.72;;
38859;SDS011;24609;48.316;16.174;2022-07-18T05:19:15;2.75;;;2.20;;
38859;SDS011;24609;48.316;16.174;2022-07-18T05:21:42;3.25;;;2.53;;
38859;SDS011;24609;48.316;16.174;2022-07-18T05:24:08;1.95;;;1.70;;
38859;SDS011;24609;48.316;16.174;2022-07-18T05:26:34;3.78;;;2.45;;
38859;SDS011;24609;48.316;16.174;2022-07-18T05:29:00;2.53;;;2.33;;
38859;SDS011;24609;48.316;16.174;2022-07-18T05:31:26;3.50;;;2.60;;
38859;SDS011;24609;48.316;16.174;2022-07-18T05:33:52;4.90;;;4.47;;
38859;SDS011;24609;48.316;16.174;2022-07-18T05:36:17;4.28;;;2.55;;
38859;SDS011;24609;48.316;16.174;2022-07-18T05:38:43;2.53;;;2.00;;
38859;SDS011;24609;48.316;16.174;2022-07-18T05:41:09;2.65;;;2.33;;
38859;SDS011;24609;48.316;16.174;2022-07-18T05:43:34;2.38;;;2.15;;
38859;SDS011;24609;48.316;16.174;2022-07-18T05:46:00;2.47;;;2.28;;
38859;SDS011;24609;48.316;16.174;2022-07-18T05:48:26;3.35;;;2.78;;
38859;SDS011;24609;48.316;16.174;2022-07-18T05:50:52;3.95;;;2.72;;
38859;SDS011;24609;48.316;16.174;2022-07-18T05:53:17;4.13;;;3.53;;
38859;SDS011;24609;48.316;16.174;2022-07-18T05:55:43;3.45;;;2.60;;
38859;SDS011;24609;48.316;16.174;2022-07-18T05:58:09;2.83;;;1.88;;
38859;SDS011;24609;48.316;16.174;2022-07-18T06:00:35;1.98;;;1.73;;
38859;SDS011;24609;48.316;16.174;2022-07-18T06:03:00;3.97;;;2.22;;
38859;SDS011;24609;48.316;16.174;2022-07-18T06:05:26;1.98;;;1.77;;
38859;SDS011;24609;48.316;16.174;2022-07-18T06:07:53;3.35;;;2.10;;
38859;SDS011;24609;48.316;16.174;2022-07-18T06:10:19;2.70;;;2.05;;
38859;SDS011;24609;48.316;16.174;2022-07-18T06:12:46;2.92;;;2.00;;
38859;SDS011;24609;48.316;16.174;2022-07-18T06:15:12;2.90;;;1.60;;
38859;SDS011;24609;48.316;16.174;2022-07-18T06:17:38;2.97;;;2.00;;
38859;SDS011;24609;48.316;16.174;2022-07-18T06:20:04;3.15;;;2.08;;
38859;SDS011;24609;48.316;16.174;2022-07-18T06:22:32;2.78;;;2.08;;
38859;SDS011;24609;48.316;16.174;2022-07-18T06:24:59;2.20;;;2.00;;
38859;SDS011;24609;48.316;16.174;2022-07-18T06:27:25;2.33;;;1.75;;
38859;SDS011;24609;48.316;16.174;2022-07-18T06:29:51;2.20;;;1.70;;
38859;SDS011;24609;48.316;16.174;2022-07-18T06:32:16;2.45;;;1.65;;
38859;SDS011;24609;48.316;16.174;2022-07-18T06:34:42;2.15;;;1.80;;
38859;SDS011;24609;48.316;16.174;2022-07-18T06:37:08;2.75;;;2.00;;
38859;SDS011;24609;48.316;16.174;2022-07-18T06:39:33;2.47;;;1.67;;
38859;SDS011;24609;48.316;16.174;2022-07-18T06:41:59;4.13;;;2.03;;
38859;SDS011;24609;48.316;16.174;2022-07-18T06:44:25;2.67;;;2.00;;
38859;SDS011;24609;48.316;16.174;2022-07-18T06:46:51;2.50;;;2.30;;
38859;SDS011;24609;48.316;16.174;2022-07-18T06:49:20;2.75;;;2.03;;
38859;SDS011;24609;48.316;16.174;2022-07-18T06:51:45;2.65;;;2.22;;
38859;SDS011;24609;48.316;16.174;2022-07-18T06:54:11;2.35;;;1.83;;
38859;SDS011;24609;48.316;16.174;2022-07-18T06:56:37;2.80;;;1.98;;
38859;SDS011;24609;48.316;16.174;2022-07-18T06:59:02;2.85;;;1.80;;
38859;SDS011;24609;48.316;16.174;2022-07-18T07:01:28;2.80;;;2.20;;
38859;SDS011;24609;48.316;16.174;2022-07-18T07:03:54;3.55;;;2.78;;
38859;SDS011;24609;48.316;16.174;2022-07-18T07:06:20;2.70;;;2.50;;
38859;SDS011;24609;48.316;16.174;2022-07-18T07:08:45;3.97;;;2.50;;
38859;SDS011;24609;48.316;16.174;2022-07-18T07:11:11;2.35;;;2.15;;
38859;SDS011;24609;48.316;16.174;2022-07-18T07:13:37;2.72;;;2.20;;
38859;SDS011;24609;48.316;16.174;2022-07-18T07:16:03;2.60;;;2.40;;
38859;SDS011;24609;48.316;16.174;2022-07-18T07:18:29;3.83;;;2.50;;
38859;SDS011;24609;48.316;16.174;2022-07-18T07:20:55;2.13;;;1.92;;
38859;SDS011;24609;48.316;16.174;2022-07-18T07:23:20;2.30;;;2.05;;
38859;SDS011;24609;48.316;16.174;2022-07-18T07:25:46;3.45;;;2.17;;
38859;SDS011;24609;48.316;16.174;2022-07-18T07:28:12;2.42;;;1.90;;
38859;SDS011;24609;48.316;16.174;2022-07-18T07:30:37;3.05;;;2.75;;
38859;SDS011;24609;48.316;16.174;2022-07-18T07:33:03;4.35;;;2.10;;
38859;SDS011;24609;48.316;16.174;2022-07-18T07:35:32;2.05;;;1.85;;
38859;SDS011;24609;48.316;16.174;2022-07-18T07:37:58;1.83;;;1.70;;
38859;SDS011;24609;48.316;16.174;2022-07-18T07:40:25;2.75;;;1.88;;
38859;SDS011;24609;48.316;16.174;2022-07-18T07:42:52;2.85;;;2.10;;
38859;SDS011;24609;48.316;16.174;2022-07-18T07:45:29;3.00;;;2.30;;
38859;SDS011;24609;48.316;16.174;2022-07-18T07:47:55;2.22;;;1.83;;
38859;SDS011;24609;48.316;16.174;2022-07-18T07:50:21;2.67;;;2.00;;
38859;SDS011;24609;48.316;16.174;2022-07-18T07:52:46;3.30;;;2.22;;
38859;SDS011;24609;48.316;16.174;2022-07-18T07:55:12;3.08;;;2.03;;
38859;SDS011;24609;48.316;16.174;2022-07-18T07:57:38;2.75;;;1.90;;
38859;SDS011;24609;48.316;16.174;2022-07-18T08:00:04;1.75;;;1.48;;
38859;SDS011;24609;48.316;16.174;2022-07-18T08:02:33;2.15;;;1.60;;
38859;SDS011;24609;48.316;16.174;2022-07-18T08:04:59;3.90;;;2.25;;
38859;SDS011;24609;48.316;16.174;2022-07-18T08:07:24;2.15;;;1.95;;
38859;SDS011;24609;48.316;16.174;2022-07-18T08:09:50;2.63;;;2.40;;
38859;SDS011;24609;48.316;16.174;2022-07-18T08:12:16;2.63;;;2.42;;
38859;SDS011;24609;48.316;16.174;2022-07-18T08:14:42;2.47;;;2.17;;
38859;SDS011;24609;48.316;16.174;2022-07-18T08:17:07;2.42;;;2.20;;
38859;SDS011;24609;48.316;16.174;2022-07-18T08:19:33;2.88;;;1.60;;
38859;SDS011;24609;48.316;16.174;2022-07-18T08:21:59;1.98;;;1.80;;
38859;SDS011;24609;48.316;16.174;2022-07-18T08:24:24;1.50;;;1.40;;
38859;SDS011;24609;48.316;16.174;2022-07-18T08:26:50;3.35;;;1.48;;
38859;SDS011;24609;48.316;16.174;2022-07-18T08:29:16;3.20;;;1.77;;
38859;SDS011;24609;48.316;16.174;2022-07-18T08:31:42;1.90;;;1.58;;
38859;SDS011;24609;48.316;16.174;2022-07-18T08:34:09;1.60;;;1.50;;
38859;SDS011;24609;48.316;16.174;2022-07-18T08:36:34;2.35;;;1.42;;
38859;SDS011;24609;48.316;16.174;2022-07-18T08:39:00;1.50;;;1.40;;
38859;SDS011;24609;48.316;16.174;2022-07-18T08:41:26;2.15;;;1.27;;
38859;SDS011;24609;48.316;16.174;2022-07-18T08:43:53;4.15;;;1.25;;
38859;SDS011;24609;48.316;16.174;2022-07-18T08:46:20;2.60;;;1.10;;
38859;SDS011;24609;48.316;16.174;2022-07-18T08:48:50;2.80;;;1.30;;
38859;SDS011;24609;48.316;16.174;2022-07-18T08:51:17;2.30;;;1.40;;
38859;SDS011;24609;48.316;16.174;2022-07-18T08:53:43;1.30;;;0.90;;
38859;SDS011;24609;48.316;16.174;2022-07-18T08:58:37;2.58;;;1.10;;
38859;SDS011;24609;48.316;16.174;2022-07-18T09:01:03;2.72;;;1.20;;
38859;SDS011;24609;48.316;16.174;2022-07-18T09:03:29;1.52;;;1.10;;
38859;SDS011;24609;48.316;16.174;2022-07-18T09:06:31;1.77;;;1.08;;
38859;SDS011;24609;48.316;16.174;2022-07-18T09:08:58;1.05;;;0.95;;
38859;SDS011;24609;48.316;16.174;2022-07-18T09:11:25;2.67;;;1.10;;
38859;SDS011;24609;48.316;16.174;2022-07-18T09:13:51;1.60;;;1.17;;
38859;SDS011;24609;48.316;16.174;2022-07-18T09:16:16;2.40;;;1.30;;
38859;SDS011;24609;48.316;16.174;2022-07-18T09:18:46;1.85;;;1.30;;
38859;SDS011;24609;48.316;16.174;2022-07-18T09:23:43;5.07;;;1.15;;
38859;SDS011;24609;48.316;16.174;2022-07-18T09:26:17;1.63;;;1.15;;
38859;SDS011;24609;48.316;16.174;2022-07-18T09:29:01;1.17;;;0.85;;
38859;SDS011;24609;48.316;16.174;2022-07-18T09:31:27;3.15;;;1.25;;
38859;SDS011;24609;48.316;16.174;2022-07-18T09:36:20;3.25;;;1.30;;
38859;SDS011;24609;48.316;16.174;2022-07-18T09:38:45;1.77;;;1.20;;
38859;SDS011;24609;48.316;16.174;2022-07-18T09:41:11;2.63;;;1.13;;
38859;SDS011;24609;48.316;16.174;2022-07-18T09:43:38;1.50;;;1.10;;
38859;SDS011;24609;48.316;16.174;2022-07-18T09:46:04;2.08;;;1.00;;
38859;SDS011;24609;48.316;16.174;2022-07-18T09:48:31;1.55;;;1.10;;
38859;SDS011;24609;48.316;16.174;2022-07-18T09:51:01;2.58;;;1.17;;
38859;SDS011;24609;48.316;16.174;2022-07-18T09:56:03;2.97;;;1.17;;
38859;SDS011;24609;48.316;16.174;2022-07-18T09:58:41;2.42;;;1.30;;
38859;SDS011;24609;48.316;16.174;2022-07-18T10:01:20;1.33;;;1.00;;
38859;SDS011;24609;48.316;16.174;2022-07-18T10:03:46;2.33;;;1.20;;
38859;SDS011;24609;48.316;16.174;2022-07-18T10:06:15;1.85;;;0.93;;
38859;SDS011;24609;48.316;16.174;2022-07-18T10:08:43;2.15;;;1.05;;
38859;SDS011;24609;48.316;16.174;2022-07-18T10:11:09;2.00;;;1.20;;
38859;SDS011;24609;48.316;16.174;2022-07-18T10:13:36;1.85;;;1.10;;
38859;SDS011;24609;48.316;16.174;2022-07-18T10:16:03;1.33;;;1.10;;
38859;SDS011;24609;48.316;16.174;2022-07-18T10:18:31;3.72;;;1.15;;
38859;SDS011;24609;48.316;16.174;2022-07-18T10:28:30;2.08;;;0.98;;
38859;SDS011;24609;48.316;16.174;2022-07-18T10:31:00;1.88;;;1.05;;
38859;SDS011;24609;48.316;16.174;2022-07-18T10:33:45;2.30;;;0.88;;
38859;SDS011;24609;48.316;16.174;2022-07-18T10:36:23;1.48;;;1.05;;
38859;SDS011;24609;48.316;16.174;2022-07-18T10:57:42;1.25;;;0.90;;
38859;SDS011;24609;48.316;16.174;2022-07-18T11:00:24;1.05;;;0.70;;
38859;SDS011;24609;48.316;16.174;2022-07-18T11:16:11;0.95;;;0.77;;
38859;SDS011;24609;48.316;16.174;2022-07-18T11:24:03;1.65;;;0.98;;
38859;SDS011;24609;48.316;16.174;2022-07-18T11:26:38;1.00;;;0.85;;
38859;SDS011;24609;48.316;16.174;2022-07-18T11:29:09;1.70;;;0.80;;
38859;SDS011;24609;48.316;16.174;2022-07-18T11:31:43;1.25;;;0.75;;
38859;SDS011;24609;48.316;16.174;2022-07-18T11:34:09;1.42;;;0.75;;
38859;SDS011;24609;48.316;16.174;2022-07-18T11:36:34;2.72;;;0.80;;
38859;SDS011;24609;48.316;16.174;2022-07-18T11:39:04;1.38;;;0.80;;
38859;SDS011;24609;48.316;16.174;2022-07-18T11:41:30;1.77;;;0.93;;
38859;SDS011;24609;48.316;16.174;2022-07-18T11:43:56;2.30;;;0.80;;
38859;SDS011;24609;48.316;16.174;2022-07-18T11:46:26;1.60;;;0.90;;
38859;SDS011;24609;48.316;16.174;2022-07-18T11:48:59;1.95;;;0.80;;
38859;SDS011;24609;48.316;16.174;2022-07-18T11:51:32;2.65;;;1.00;;
38859;SDS011;24609;48.316;16.174;2022-07-18T11:54:09;1.23;;;0.70;;
38859;SDS011;24609;48.316;16.174;2022-07-18T11:56:48;1.13;;;0.90;;
38859;SDS011;24609;48.316;16.174;2022-07-18T11:59:15;1.10;;;0.70;;
38859;SDS011;24609;48.316;16.174;2022-07-18T12:01:41;2.30;;;1.10;;
38859;SDS011;24609;48.316;16.174;2022-07-18T12:04:14;1.35;;;0.88;;
38859;SDS011;24609;48.316;16.174;2022-07-18T12:09:39;2.00;;;1.20;;
38859;SDS011;24609;48.316;16.174;2022-07-18T12:12:09;1.35;;;1.10;;
38859;SDS011;24609;48.316;16.174;2022-07-18T12:14:36;1.33;;;1.00;;
38859;SDS011;24609;48.316;16.174;2022-07-18T12:17:03;1.33;;;0.90;;
38859;SDS011;24609;48.316;16.174;2022-07-18T12:19:39;1.27;;;0.98;;
38859;SDS011;24609;48.316;16.174;2022-07-18T12:22:06;1.63;;;0.90;;
38859;SDS011;24609;48.316;16.174;2022-07-18T12:24:34;1.05;;;0.68;;
38859;SDS011;24609;48.316;16.174;2022-07-18T12:27:15;1.15;;;0.90;;
38859;SDS011;24609;48.316;16.174;2022-07-18T12:32:36;0.90;;;0.80;;
38859;SDS011;24609;48.316;16.174;2022-07-18T12:35:27;2.13;;;1.10;;
38859;SDS011;24609;48.316;16.174;2022-07-18T12:40:27;1.98;;;1.10;;
38859;SDS011;24609;48.316;16.174;2022-07-18T12:43:10;1.55;;;0.90;;
38859;SDS011;24609;48.316;16.174;2022-07-18T12:45:41;1.10;;;1.00;;
38859;SDS011;24609;48.316;16.174;2022-07-18T12:48:09;1.00;;;0.85;;
38859;SDS011;24609;48.316;16.174;2022-07-18T12:50:36;1.42;;;0.90;;
38859;SDS011;24609;48.316;16.174;2022-07-18T12:53:03;0.70;;;0.70;;
38859;SDS011;24609;48.316;16.174;2022-07-18T12:55:29;1.98;;;0.90;;
38859;SDS011;24609;48.316;16.174;2022-07-18T12:57:55;1.30;;;0.98;;
38859;SDS011;24609;48.316;16.174;2022-07-18T13:00:20;2.08;;;1.00;;
38859;SDS011;24609;48.316;16.174;2022-07-18T13:02:46;1.13;;;1.00;;
38859;SDS011;24609;48.316;16.174;2022-07-18T13:05:12;1.10;;;1.00;;
38859;SDS011;24609;48.316;16.174;2022-07-18T13:07:38;1.10;;;1.00;;
38859;SDS011;24609;48.316;16.174;2022-07-18T13:10:04;0.85;;;0.85;;
38859;SDS011;24609;48.316;16.174;2022-07-18T13:12:31;1.63;;;1.00;;
38859;SDS011;24609;48.316;16.174;2022-07-18T13:14:57;0.98;;;0.80;;
38859;SDS011;24609;48.316;16.174;2022-07-18T13:17:23;2.50;;;1.02;;
38859;SDS011;24609;48.316;16.174;2022-07-18T13:19:49;1.20;;;1.10;;
38859;SDS011;24609;48.316;16.174;2022-07-18T13:22:15;2.28;;;0.85;;
38859;SDS011;24609;48.316;16.174;2022-07-18T13:24:41;1.38;;;1.00;;
38859;SDS011;24609;48.316;16.174;2022-07-18T13:27:07;2.53;;;1.30;;
38859;SDS011;24609;48.316;16.174;2022-07-18T13:29:33;1.85;;;1.20;;
38859;SDS011;24609;48.316;16.174;2022-07-18T13:31:59;2.03;;;1.20;;
38859;SDS011;24609;48.316;16.174;2022-07-18T13:34:26;1.00;;;0.85;;
38859;SDS011;24609;48.316;16.174;2022-07-18T13:36:52;1.00;;;0.90;;
38859;SDS011;24609;48.316;16.174;2022-07-18T13:39:18;1.00;;;0.90;;
38859;SDS011;24609;48.316;16.174;2022-07-18T13:41:45;1.48;;;0.90;;
38859;SDS011;24609;48.316;16.174;2022-07-18T13:44:12;1.48;;;1.10;;
38859;SDS011;24609;48.316;16.174;2022-07-18T13:46:38;2.08;;;1.20;;
38859;SDS011;24609;48.316;16.174;2022-07-18T13:49:08;1.17;;;0.93;;
38859;SDS011;24609;48.316;16.174;2022-07-18T13:51:35;1.10;;;0.90;;
38859;SDS011;24609;48.316;16.174;2022-07-18T13:54:02;1.55;;;1.10;;
38859;SDS011;24609;48.316;16.174;2022-07-18T13:56:31;1.48;;;1.00;;
38859;SDS011;24609;48.316;16.174;2022-07-18T13:58:57;1.52;;;0.80;;
38859;SDS011;24609;48.316;16.174;2022-07-18T14:01:23;1.17;;;1.00;;
38859;SDS011;24609;48.316;16.174;2022-07-18T14:03:49;1.33;;;0.88;;
38859;SDS011;24609;48.316;16.174;2022-07-18T14:06:15;1.00;;;0.88;;
38859;SDS011;24609;48.316;16.174;2022-07-18T14:08:41;2.67;;;0.90;;
38859;SDS011;24609;48.316;16.174;2022-07-18T14:11:06;1.27;;;0.95;;
38859;SDS011;24609;48.316;16.174;2022-07-18T14:13:32;2.47;;;1.23;;
38859;SDS011;24609;48.316;16.174;2022-07-18T14:15:58;2.10;;;1.10;;
38859;SDS011;24609;48.316;16.174;2022-07-18T14:18:24;3.15;;;1.10;;
38859;SDS011;24609;48.316;16.174;2022-07-18T14:20:50;1.10;;;0.93;;
38859;SDS011;24609;48.316;16.174;2022-07-18T14:23:16;2.17;;;1.10;;
38859;SDS011;24609;48.316;16.174;2022-07-18T14:25:41;2.92;;;1.33;;
38859;SDS011;24609;48.316;16.174;2022-07-18T14:28:07;1.58;;;1.05;;
38859;SDS011;24609;48.316;16.174;2022-07-18T14:30:33;1.58;;;0.90;;
38859;SDS011;24609;48.316;16.174;2022-07-18T14:32:59;1.95;;;1.20;;
38859;SDS011;24609;48.316;16.174;2022-07-18T14:35:24;0.90;;;0.70;;
38859;SDS011;24609;48.316;16.174;2022-07-18T14:37:50;1.88;;;0.80;;
38859;SDS011;24609;48.316;16.174;2022-07-18T14:40:16;1.42;;;0.80;;
38859;SDS011;24609;48.316;16.174;2022-07-18T14:42:42;1.83;;;1.05;;
38859;SDS011;24609;48.316;16.174;2022-07-18T14:45:08;0.93;;;0.85;;
38859;SDS011;24609;48.316;16.174;2022-07-18T14:47:34;1.10;;;0.70;;
38859;SDS011;24609;48.316;16.174;2022-07-18T14:50:02;1.92;;;0.90;;
38859;SDS011;24609;48.316;16.174;2022-07-18T14:52:29;1.23;;;1.10;;
38859;SDS011;24609;48.316;16.174;2022-07-18T14:54:55;1.10;;;1.00;;
38859;SDS011;24609;48.316;16.174;2022-07-18T14:57:20;1.63;;;1.00;;
38859;SDS011;24609;48.316;16.174;2022-07-18T14:59:46;1.58;;;0.90;;
38859;SDS011;24609;48.316;16.174;2022-07-18T15:02:12;2.58;;;1.20;;
38859;SDS011;24609;48.316;16.174;2022-07-18T15:04:39;1.90;;;1.00;;
38859;SDS011;24609;48.316;16.174;2022-07-18T15:07:05;2.47;;;1.13;;
38859;SDS011;24609;48.316;16.174;2022-07-18T15:09:31;1.17;;;1.08;;
38859;SDS011;24609;48.316;16.174;2022-07-18T15:11:57;3.17;;;0.90;;
38859;SDS011;24609;48.316;16.174;2022-07-18T15:14:23;1.17;;;0.88;;
38859;SDS011;24609;48.316;16.174;2022-07-18T15:16:49;1.75;;;1.02;;
38859;SDS011;24609;48.316;16.174;2022-07-18T15:19:15;1.70;;;0.90;;
38859;SDS011;24609;48.316;16.174;2022-07-18T15:21:41;1.58;;;1.00;;
38859;SDS011;24609;48.316;16.174;2022-07-18T15:24:06;1.77;;;1.00;;
38859;SDS011;24609;48.316;16.174;2022-07-18T15:26:33;1.90;;;0.93;;
38859;SDS011;24609;48.316;16.174;2022-07-18T15:28:59;1.05;;;0.80;;
38859;SDS011;24609;48.316;16.174;2022-07-18T15:31:25;2.08;;;0.70;;
38859;SDS011;24609;48.316;16.174;2022-07-18T15:33:51;2.85;;;1.00;;
38859;SDS011;24609;48.316;16.174;2022-07-18T15:36:17;1.33;;;0.90;;